sensor_id;sensor_type;location;lat;lon;timestamp;temperature;humidity
23160;DHT22;11748;50.844;4.396;2023-09-12T00:02:22;23.30;99.90
23160;DHT22;11748;50.844;4.396;2023-09-12T00:04:48;23.30;99.90
23160;DHT22;11748;50.844;4.396;2023-09-12T00:07:16;23.30;99.90
23160;DHT22;11748;50.844;4.396;2023-09-12T00:09:41;23.30;99.90
23160;DHT22;11748;50.844;4.396;2023-09-12T00:12:07;23.30;99.90
23160;DHT22;11748;50.844;4.396;2023-09-12T00:14:33;23.20;99.90
23160;DHT22;11748;50.844;4.396;2023-09-12T00:16:59;23.30;99.90
23160;DHT22;11748;50.844;4.396;2023-09-12T00:19:25;23.40;99.90
23160;DHT22;11748;50.844;4.396;2023-09-12T00:21:52;23.50;99.90
23160;DHT22;11748;50.844;4.396;2023-09-12T00:24:18;23.60;99.90
23160;DHT22;11748;50.844;4.396;2023-09-12T00:26:44;23.60;99.90
23160;DHT22;11748;50.844;4.396;2023-09-12T00:29:10;23.70;99.90
23160;DHT22;11748;50.844;4.396;2023-09-12T00:31:35;23.70;99.90
23160;DHT22;11748;50.844;4.396;2023-09-12T00:34:01;23.80;99.90
23160;DHT22;11748;50.844;4.396;2023-09-12T00:36:27;23.80;99.90
23160;DHT22;11748;50.844;4.396;2023-09-12T00:38:52;23.80;99.90
23160;DHT22;11748;50.844;4.396;2023-09-12T00:41:18;23.80;99.90
23160;DHT22;11748;50.844;4.396;2023-09-12T00:43:44;23.80;99.90
23160;DHT22;11748;50.844;4.396;2023-09-12T00:46:09;23.80;99.90
23160;DHT22;11748;50.844;4.396;2023-09-12T00:48:36;23.80;99.90
23160;DHT22;11748;50.844;4.396;2023-09-12T00:51:03;23.70;99.90
23160;DHT22;11748;50.844;4.396;2023-09-12T00:53:30;23.70;99.90
23160;DHT22;11748;50.844;4.396;2023-09-12T00:55:57;23.60;99.90
23160;DHT22;11748;50.844;4.396;2023-09-12T00:58:25;23.60;99.90
23160;DHT22;11748;50.844;4.396;2023-09-12T01:00:51;23.60;99.90
23160;DHT22;11748;50.844;4.396;2023-09-12T01:03:17;23.50;99.90
23160;DHT22;11748;50.844;4.396;2023-09-12T01:05:43;23.50;99.90
23160;DHT22;11748;50.844;4.396;2023-09-12T01:08:10;23.40;99.90
23160;DHT22;11748;50.844;4.396;2023-09-12T01:10:36;23.40;99.90
23160;DHT22;11748;50.844;4.396;2023-09-12T01:13:02;23.40;99.90
23160;DHT22;11748;50.844;4.396;2023-09-12T01:15:28;23.30;99.90
23160;DHT22;11748;50.844;4.396;2023-09-12T01:17:56;23.30;99.90
23160;DHT22;11748;50.844;4.396;2023-09-12T01:20:28;23.20;99.90
23160;DHT22;11748;50.844;4.396;2023-09-12T01:28:30;23.30;99.90
23160;DHT22;11748;50.844;4.396;2023-09-12T01:31:01;23.30;99.90
23160;DHT22;11748;50.844;4.396;2023-09-12T01:33:29;23.20;99.90
23160;DHT22;11748;50.844;4.396;2023-09-12T01:35:55;23.30;99.90
23160;DHT22;11748;50.844;4.396;2023-09-12T01:38:21;23.20;99.90
23160;DHT22;11748;50.844;4.396;2023-09-12T01:40:49;23.30;99.90
23160;DHT22;11748;50.844;4.396;2023-09-12T01:43:18;23.30;99.90
23160;DHT22;11748;50.844;4.396;2023-09-12T01:45:50;23.30;99.90
23160;DHT22;11748;50.844;4.396;2023-09-12T01:48:20;23.40;99.90
23160;DHT22;11748;50.844;4.396;2023-09-12T01:50:48;23.30;99.90
23160;DHT22;11748;50.844;4.396;2023-09-12T01:53:15;23.10;99.90
23160;DHT22;11748;50.844;4.396;2023-09-12T01:55:45;23.20;99.90
23160;DHT22;11748;50.844;4.396;2023-09-12T01:58:12;23.20;99.90
23160;DHT22;11748;50.844;4.396;2023-09-12T02:00:39;23.30;99.90
23160;DHT22;11748;50.844;4.396;2023-09-12T02:03:05;23.20;99.90
23160;DHT22;11748;50.844;4.396;2023-09-12T02:05:31;23.30;99.90
23160;DHT22;11748;50.844;4.396;2023-09-12T02:07:58;23.20;99.90
23160;DHT22;11748;50.844;4.396;2023-09-12T02:10:27;23.00;99.90
23160;DHT22;11748;50.844;4.396;2023-09-12T02:12:53;23.00;99.90
23160;DHT22;11748;50.844;4.396;2023-09-12T02:15:19;23.00;99.90
23160;DHT22;11748;50.844;4.396;2023-09-12T02:17:44;23.20;99.90
23160;DHT22;11748;50.844;4.396;2023-09-12T02:20:10;23.10;99.90
23160;DHT22;11748;50.844;4.396;2023-09-12T02:22:37;23.10;99.90
23160;DHT22;11748;50.844;4.396;2023-09-12T02:25:06;23.00;99.90
23160;DHT22;11748;50.844;4.396;2023-09-12T02:27:33;22.90;99.90
23160;DHT22;11748;50.844;4.396;2023-09-12T02:29:59;22.80;99.90
23160;DHT22;11748;50.844;4.396;2023-09-12T02:32:25;22.60;99.90
23160;DHT22;11748;50.844;4.396;2023-09-12T02:34:51;22.70;99.90
23160;DHT22;11748;50.844;4.396;2023-09-12T02:37:18;22.50;99.90
23160;DHT22;11748;50.844;4.396;2023-09-12T02:39:44;22.40;99.90
23160;DHT22;11748;50.844;4.396;2023-09-12T02:42:10;22.40;99.90
23160;DHT22;11748;50.844;4.396;2023-09-12T02:44:35;22.20;99.90
23160;DHT22;11748;50.844;4.396;2023-09-12T02:47:02;22.20;99.90
23160;DHT22;11748;50.844;4.396;2023-09-12T02:49:28;22.20;99.90
23160;DHT22;11748;50.844;4.396;2023-09-12T02:51:54;22.40;99.90
23160;DHT22;11748;50.844;4.396;2023-09-12T02:54:19;22.40;99.90
23160;DHT22;11748;50.844;4.396;2023-09-12T02:56:45;22.40;99.90
23160;DHT22;11748;50.844;4.396;2023-09-12T02:59:11;22.50;99.90
23160;DHT22;11748;50.844;4.396;2023-09-12T03:01:37;22.60;99.90
23160;DHT22;11748;50.844;4.396;2023-09-12T03:04:03;22.50;99.90
23160;DHT22;11748;50.844;4.396;2023-09-12T03:06:29;22.40;99.90
23160;DHT22;11748;50.844;4.396;2023-09-12T03:08:56;22.30;99.90
23160;DHT22;11748;50.844;4.396;2023-09-12T03:11:22;22.50;99.90
23160;DHT22;11748;50.844;4.396;2023-09-12T03:13:48;22.40;99.90
23160;DHT22;11748;50.844;4.396;2023-09-12T03:16:15;22.70;99.90
23160;DHT22;11748;50.844;4.396;2023-09-12T03:18:41;22.60;99.90
23160;DHT22;11748;50.844;4.396;2023-09-12T03:21:07;22.80;99.90
23160;DHT22;11748;50.844;4.396;2023-09-12T03:23:33;22.90;99.90
23160;DHT22;11748;50.844;4.396;2023-09-12T03:26:05;22.80;99.90
23160;DHT22;11748;50.844;4.396;2023-09-12T03:28:31;22.80;99.90
23160;DHT22;11748;50.844;4.396;2023-09-12T03:31:26;22.90;99.90
23160;DHT22;11748;50.844;4.396;2023-09-12T03:33:54;23.00;99.90
23160;DHT22;11748;50.844;4.396;2023-09-12T03:36:20;22.90;99.90
23160;DHT22;11748;50.844;4.396;2023-09-12T03:38:45;22.90;99.90
23160;DHT22;11748;50.844;4.396;2023-09-12T03:41:11;23.00;99.90
23160;DHT22;11748;50.844;4.396;2023-09-12T03:43:37;23.00;99.90
23160;DHT22;11748;50.844;4.396;2023-09-12T03:46:03;23.00;99.90
23160;DHT22;11748;50.844;4.396;2023-09-12T03:48:30;23.00;99.90
23160;DHT22;11748;50.844;4.396;2023-09-12T03:50:59;23.00;99.90
23160;DHT22;11748;50.844;4.396;2023-09-12T03:53:26;23.00;99.90
23160;DHT22;11748;50.844;4.396;2023-09-12T03:55:53;23.10;99.90
23160;DHT22;11748;50.844;4.396;2023-09-12T03:58:19;23.10;99.90
23160;DHT22;11748;50.844;4.396;2023-09-12T04:00:44;23.10;99.90
23160;DHT22;11748;50.844;4.396;2023-09-12T04:03:10;23.00;99.90
23160;DHT22;11748;50.844;4.396;2023-09-12T04:05:36;23.00;99.90
23160;DHT22;11748;50.844;4.396;2023-09-12T04:08:01;22.90;99.90
23160;DHT22;11748;50.844;4.396;2023-09-12T04:10:27;22.80;99.90
23160;DHT22;11748;50.844;4.396;2023-09-12T04:12:54;22.70;99.90
23160;DHT22;11748;50.844;4.396;2023-09-12T04:15:20;22.50;99.90
23160;DHT22;11748;50.844;4.396;2023-09-12T04:17:45;22.50;99.90
23160;DHT22;11748;50.844;4.396;2023-09-12T04:20:11;22.40;99.90
23160;DHT22;11748;50.844;4.396;2023-09-12T04:22:42;22.30;99.90
23160;DHT22;11748;50.844;4.396;2023-09-12T04:25:08;22.20;99.90
23160;DHT22;11748;50.844;4.396;2023-09-12T04:27:34;22.50;99.90
23160;DHT22;11748;50.844;4.396;2023-09-12T04:30:00;22.60;99.90
23160;DHT22;11748;50.844;4.396;2023-09-12T04:32:25;22.70;99.90
23160;DHT22;11748;50.844;4.396;2023-09-12T04:34:51;22.80;99.90
23160;DHT22;11748;50.844;4.396;2023-09-12T04:37:17;22.80;99.90
23160;DHT22;11748;50.844;4.396;2023-09-12T04:39:44;22.80;99.90
23160;DHT22;11748;50.844;4.396;2023-09-12T04:42:10;22.90;99.90
23160;DHT22;11748;50.844;4.396;2023-09-12T04:44:39;23.00;99.90
23160;DHT22;11748;50.844;4.396;2023-09-12T04:47:05;22.90;99.90
23160;DHT22;11748;50.844;4.396;2023-09-12T04:49:30;22.90;99.90
23160;DHT22;11748;50.844;4.396;2023-09-12T04:51:56;23.00;99.90
23160;DHT22;11748;50.844;4.396;2023-09-12T04:54:22;22.90;99.90
23160;DHT22;11748;50.844;4.396;2023-09-12T04:56:48;23.00;99.90
23160;DHT22;11748;50.844;4.396;2023-09-12T04:59:13;23.00;99.90
23160;DHT22;11748;50.844;4.396;2023-09-12T05:01:40;23.00;99.90
23160;DHT22;11748;50.844;4.396;2023-09-12T05:04:06;22.90;99.90
23160;DHT22;11748;50.844;4.396;2023-09-12T05:06:31;22.90;99.90
23160;DHT22;11748;50.844;4.396;2023-09-12T05:08:57;22.70;99.90
23160;DHT22;11748;50.844;4.396;2023-09-12T05:11:23;22.50;99.90
23160;DHT22;11748;50.844;4.396;2023-09-12T05:13:50;22.60;99.90
23160;DHT22;11748;50.844;4.396;2023-09-12T05:16:16;22.60;99.90
23160;DHT22;11748;50.844;4.396;2023-09-12T05:18:41;22.70;99.90
23160;DHT22;11748;50.844;4.396;2023-09-12T05:21:07;22.80;99.90
23160;DHT22;11748;50.844;4.396;2023-09-12T05:23:33;22.70;99.90
23160;DHT22;11748;50.844;4.396;2023-09-12T05:25:59;22.80;99.90
23160;DHT22;11748;50.844;4.396;2023-09-12T05:28:24;22.80;99.90
23160;DHT22;11748;50.844;4.396;2023-09-12T05:30:50;22.80;99.90
23160;DHT22;11748;50.844;4.396;2023-09-12T05:33:16;22.90;99.90
23160;DHT22;11748;50.844;4.396;2023-09-12T05:35:42;22.80;99.90
23160;DHT22;11748;50.844;4.396;2023-09-12T05:38:10;22.80;99.90
23160;DHT22;11748;50.844;4.396;2023-09-12T05:40:36;22.80;99.90
23160;DHT22;11748;50.844;4.396;2023-09-12T05:43:02;22.80;99.90
23160;DHT22;11748;50.844;4.396;2023-09-12T05:45:28;22.80;99.90
23160;DHT22;11748;50.844;4.396;2023-09-12T05:47:56;22.70;99.90
23160;DHT22;11748;50.844;4.396;2023-09-12T05:50:22;22.70;99.90
23160;DHT22;11748;50.844;4.396;2023-09-12T05:52:48;22.70;99.90
23160;DHT22;11748;50.844;4.396;2023-09-12T05:55:14;22.60;99.90
23160;DHT22;11748;50.844;4.396;2023-09-12T05:57:40;22.60;99.90
23160;DHT22;11748;50.844;4.396;2023-09-12T06:00:06;22.60;99.90
23160;DHT22;11748;50.844;4.396;2023-09-12T06:02:35;22.60;99.90
23160;DHT22;11748;50.844;4.396;2023-09-12T06:05:01;22.50;99.90
23160;DHT22;11748;50.844;4.396;2023-09-12T06:07:28;22.50;99.90
23160;DHT22;11748;50.844;4.396;2023-09-12T06:09:54;22.60;99.90
23160;DHT22;11748;50.844;4.396;2023-09-12T06:12:19;22.70;99.90
23160;DHT22;11748;50.844;4.396;2023-09-12T06:14:45;22.70;99.90
23160;DHT22;11748;50.844;4.396;2023-09-12T06:17:11;22.70;99.90
23160;DHT22;11748;50.844;4.396;2023-09-12T06:19:37;22.60;99.90
23160;DHT22;11748;50.844;4.396;2023-09-12T06:22:02;22.50;99.90
23160;DHT22;11748;50.844;4.396;2023-09-12T06:24:29;22.60;99.90
23160;DHT22;11748;50.844;4.396;2023-09-12T06:26:55;22.80;99.90
23160;DHT22;11748;50.844;4.396;2023-09-12T06:29:22;23.00;99.90
23160;DHT22;11748;50.844;4.396;2023-09-12T06:31:48;23.30;99.90
23160;DHT22;11748;50.844;4.396;2023-09-12T06:34:15;23.50;99.90
23160;DHT22;11748;50.844;4.396;2023-09-12T06:36:41;23.60;99.90
23160;DHT22;11748;50.844;4.396;2023-09-12T06:39:11;23.60;99.90
23160;DHT22;11748;50.844;4.396;2023-09-12T06:41:37;23.70;99.90
23160;DHT22;11748;50.844;4.396;2023-09-12T06:44:04;23.70;99.90
23160;DHT22;11748;50.844;4.396;2023-09-12T06:46:32;23.50;99.90
23160;DHT22;11748;50.844;4.396;2023-09-12T06:49:02;23.60;99.90
23160;DHT22;11748;50.844;4.396;2023-09-12T06:51:28;23.60;99.90
23160;DHT22;11748;50.844;4.396;2023-09-12T06:53:54;23.70;99.90
23160;DHT22;11748;50.844;4.396;2023-09-12T06:56:19;23.50;99.90
23160;DHT22;11748;50.844;4.396;2023-09-12T06:58:47;23.50;99.90
23160;DHT22;11748;50.844;4.396;2023-09-12T07:01:13;23.70;99.90
23160;DHT22;11748;50.844;4.396;2023-09-12T07:03:39;23.90;99.90
23160;DHT22;11748;50.844;4.396;2023-09-12T07:06:05;24.10;99.90
23160;DHT22;11748;50.844;4.396;2023-09-12T07:08:32;24.10;99.90
23160;DHT22;11748;50.844;4.396;2023-09-12T07:10:58;24.30;99.90
23160;DHT22;11748;50.844;4.396;2023-09-12T07:13:31;24.30;99.90
23160;DHT22;11748;50.844;4.396;2023-09-12T07:16:06;24.30;99.90
23160;DHT22;11748;50.844;4.396;2023-09-12T07:18:35;24.20;99.90
23160;DHT22;11748;50.844;4.396;2023-09-12T07:21:04;23.70;99.90
23160;DHT22;11748;50.844;4.396;2023-09-12T07:23:30;23.60;99.90
23160;DHT22;11748;50.844;4.396;2023-09-12T07:25:56;23.60;99.90
23160;DHT22;11748;50.844;4.396;2023-09-12T07:28:26;23.60;99.90
23160;DHT22;11748;50.844;4.396;2023-09-12T07:30:55;23.70;99.90
23160;DHT22;11748;50.844;4.396;2023-09-12T07:33:21;24.00;99.90
23160;DHT22;11748;50.844;4.396;2023-09-12T07:35:48;24.40;99.90
23160;DHT22;11748;50.844;4.396;2023-09-12T07:38:17;24.50;99.90
23160;DHT22;11748;50.844;4.396;2023-09-12T07:40:44;24.40;99.90
23160;DHT22;11748;50.844;4.396;2023-09-12T07:43:10;24.60;99.90
23160;DHT22;11748;50.844;4.396;2023-09-12T07:45:36;24.50;99.90
23160;DHT22;11748;50.844;4.396;2023-09-12T07:48:07;24.60;99.90
23160;DHT22;11748;50.844;4.396;2023-09-12T07:50:34;25.00;99.90
23160;DHT22;11748;50.844;4.396;2023-09-12T07:52:59;24.70;99.90
23160;DHT22;11748;50.844;4.396;2023-09-12T07:55:25;24.40;99.90
23160;DHT22;11748;50.844;4.396;2023-09-12T07:57:51;24.20;99.90
23160;DHT22;11748;50.844;4.396;2023-09-12T08:00:17;24.30;99.90
23160;DHT22;11748;50.844;4.396;2023-09-12T08:02:43;24.50;99.90
23160;DHT22;11748;50.844;4.396;2023-09-12T08:05:09;24.60;99.90
23160;DHT22;11748;50.844;4.396;2023-09-12T08:07:36;24.70;99.90
23160;DHT22;11748;50.844;4.396;2023-09-12T08:10:02;24.60;99.90
23160;DHT22;11748;50.844;4.396;2023-09-12T08:12:28;24.50;99.90
23160;DHT22;11748;50.844;4.396;2023-09-12T08:14:55;24.70;99.90
23160;DHT22;11748;50.844;4.396;2023-09-12T08:17:22;24.60;99.90
23160;DHT22;11748;50.844;4.396;2023-09-12T08:19:48;24.70;99.90
23160;DHT22;11748;50.844;4.396;2023-09-12T08:22:14;24.40;99.90
23160;DHT22;11748;50.844;4.396;2023-09-12T08:24:40;24.20;99.90
23160;DHT22;11748;50.844;4.396;2023-09-12T08:27:06;24.20;99.90
23160;DHT22;11748;50.844;4.396;2023-09-12T08:29:33;24.30;99.90
23160;DHT22;11748;50.844;4.396;2023-09-12T08:32:00;24.50;99.90
23160;DHT22;11748;50.844;4.396;2023-09-12T08:34:26;24.40;99.90
23160;DHT22;11748;50.844;4.396;2023-09-12T08:36:52;24.30;99.90
23160;DHT22;11748;50.844;4.396;2023-09-12T08:39:36;24.40;99.90
23160;DHT22;11748;50.844;4.396;2023-09-12T08:42:05;24.20;99.90
23160;DHT22;11748;50.844;4.396;2023-09-12T08:44:31;23.90;99.90
23160;DHT22;11748;50.844;4.396;2023-09-12T08:46:59;24.00;99.90
23160;DHT22;11748;50.844;4.396;2023-09-12T08:49:26;24.30;99.90
23160;DHT22;11748;50.844;4.396;2023-09-12T08:51:52;24.50;99.90
23160;DHT22;11748;50.844;4.396;2023-09-12T08:54:18;24.50;99.90
23160;DHT22;11748;50.844;4.396;2023-09-12T08:56:44;24.70;99.90
23160;DHT22;11748;50.844;4.396;2023-09-12T08:59:10;24.80;99.90
23160;DHT22;11748;50.844;4.396;2023-09-12T09:01:37;25.00;99.90
23160;DHT22;11748;50.844;4.396;2023-09-12T09:04:05;25.00;99.90
23160;DHT22;11748;50.844;4.396;2023-09-12T09:06:31;24.90;99.90
23160;DHT22;11748;50.844;4.396;2023-09-12T09:09:07;24.70;99.90
23160;DHT22;11748;50.844;4.396;2023-09-12T09:11:34;24.70;99.90
23160;DHT22;11748;50.844;4.396;2023-09-12T09:14:06;24.70;99.90
23160;DHT22;11748;50.844;4.396;2023-09-12T09:16:31;24.90;99.90
23160;DHT22;11748;50.844;4.396;2023-09-12T09:19:04;25.20;99.90
23160;DHT22;11748;50.844;4.396;2023-09-12T09:21:37;25.50;99.90
23160;DHT22;11748;50.844;4.396;2023-09-12T09:24:12;25.80;99.90
23160;DHT22;11748;50.844;4.396;2023-09-12T09:26:44;25.90;99.90
23160;DHT22;11748;50.844;4.396;2023-09-12T09:29:20;25.90;99.90
23160;DHT22;11748;50.844;4.396;2023-09-12T09:31:48;26.10;99.90
23160;DHT22;11748;50.844;4.396;2023-09-12T09:34:17;26.20;99.90
23160;DHT22;11748;50.844;4.396;2023-09-12T09:36:46;26.10;99.90
23160;DHT22;11748;50.844;4.396;2023-09-12T09:39:13;26.00;99.90
23160;DHT22;11748;50.844;4.396;2023-09-12T09:41:39;25.60;99.90
23160;DHT22;11748;50.844;4.396;2023-09-12T09:44:07;25.30;99.90
23160;DHT22;11748;50.844;4.396;2023-09-12T09:46:33;25.40;99.90
23160;DHT22;11748;50.844;4.396;2023-09-12T09:48:59;25.80;99.90
23160;DHT22;11748;50.844;4.396;2023-09-12T09:51:26;25.80;99.90
23160;DHT22;11748;50.844;4.396;2023-09-12T09:53:52;26.10;99.90
23160;DHT22;11748;50.844;4.396;2023-09-12T09:56:23;26.00;99.90
23160;DHT22;11748;50.844;4.396;2023-09-12T09:58:56;26.10;99.90
23160;DHT22;11748;50.844;4.396;2023-09-12T10:01:29;26.20;99.90
23160;DHT22;11748;50.844;4.396;2023-09-12T10:04:00;26.20;99.90
23160;DHT22;11748;50.844;4.396;2023-09-12T10:06:28;26.30;99.90
23160;DHT22;11748;50.844;4.396;2023-09-12T10:08:55;26.20;99.90
23160;DHT22;11748;50.844;4.396;2023-09-12T10:11:23;26.10;99.90
23160;DHT22;11748;50.844;4.396;2023-09-12T10:13:53;26.30;99.90
23160;DHT22;11748;50.844;4.396;2023-09-12T10:16:23;26.50;99.90
23160;DHT22;11748;50.844;4.396;2023-09-12T10:21:34;27.00;99.90
23160;DHT22;11748;50.844;4.396;2023-09-12T10:24:03;26.70;99.90
23160;DHT22;11748;50.844;4.396;2023-09-12T10:26:31;26.40;99.90
23160;DHT22;11748;50.844;4.396;2023-09-12T10:28:57;26.20;99.90
23160;DHT22;11748;50.844;4.396;2023-09-12T10:31:25;26.10;99.90
23160;DHT22;11748;50.844;4.396;2023-09-12T10:33:52;25.90;99.90
23160;DHT22;11748;50.844;4.396;2023-09-12T10:36:20;25.90;99.90
23160;DHT22;11748;50.844;4.396;2023-09-12T10:38:48;25.90;99.90
23160;DHT22;11748;50.844;4.396;2023-09-12T10:41:14;25.90;99.90
23160;DHT22;11748;50.844;4.396;2023-09-12T10:43:42;26.00;99.90
23160;DHT22;11748;50.844;4.396;2023-09-12T10:46:09;26.30;99.90
23160;DHT22;11748;50.844;4.396;2023-09-12T10:48:36;26.50;99.90
23160;DHT22;11748;50.844;4.396;2023-09-12T10:51:02;26.80;99.90
23160;DHT22;11748;50.844;4.396;2023-09-12T10:53:32;27.10;99.90
23160;DHT22;11748;50.844;4.396;2023-09-12T10:56:16;27.50;99.90
23160;DHT22;11748;50.844;4.396;2023-09-12T11:01:34;27.90;99.90
23160;DHT22;11748;50.844;4.396;2023-09-12T11:06:44;27.70;99.90
23160;DHT22;11748;50.844;4.396;2023-09-12T11:11:46;27.50;99.90
23160;DHT22;11748;50.844;4.396;2023-09-12T11:14:13;27.70;99.90
23160;DHT22;11748;50.844;4.396;2023-09-12T11:16:39;27.70;99.90
23160;DHT22;11748;50.844;4.396;2023-09-12T11:19:17;27.70;99.90
23160;DHT22;11748;50.844;4.396;2023-09-12T11:21:49;27.80;99.90
23160;DHT22;11748;50.844;4.396;2023-09-12T11:24:16;27.20;99.90
23160;DHT22;11748;50.844;4.396;2023-09-12T11:27:02;27.10;99.90
23160;DHT22;11748;50.844;4.396;2023-09-12T11:29:38;27.40;99.90
23160;DHT22;11748;50.844;4.396;2023-09-12T11:32:06;27.70;99.90
23160;DHT22;11748;50.844;4.396;2023-09-12T11:34:38;28.00;99.90
23160;DHT22;11748;50.844;4.396;2023-09-12T11:37:05;27.50;99.90
23160;DHT22;11748;50.844;4.396;2023-09-12T11:39:36;27.20;99.90
23160;DHT22;11748;50.844;4.396;2023-09-12T11:42:11;27.20;99.90
23160;DHT22;11748;50.844;4.396;2023-09-12T11:44:45;27.40;99.90
23160;DHT22;11748;50.844;4.396;2023-09-12T11:47:12;27.30;99.90
23160;DHT22;11748;50.844;4.396;2023-09-12T11:49:56;27.40;99.90
23160;DHT22;11748;50.844;4.396;2023-09-12T11:52:27;27.20;99.90
23160;DHT22;11748;50.844;4.396;2023-09-12T11:54:53;26.90;99.90
23160;DHT22;11748;50.844;4.396;2023-09-12T11:57:26;26.90;99.90
23160;DHT22;11748;50.844;4.396;2023-09-12T11:59:56;27.40;99.90
23160;DHT22;11748;50.844;4.396;2023-09-12T12:02:22;27.90;99.90
23160;DHT22;11748;50.844;4.396;2023-09-12T12:04:50;28.20;99.90
23160;DHT22;11748;50.844;4.396;2023-09-12T12:07:18;28.10;99.90
23160;DHT22;11748;50.844;4.396;2023-09-12T12:09:50;28.40;99.90
23160;DHT22;11748;50.844;4.396;2023-09-12T12:12:17;28.80;99.90
23160;DHT22;11748;50.844;4.396;2023-09-12T12:14:44;28.80;99.90
23160;DHT22;11748;50.844;4.396;2023-09-12T12:17:12;28.70;99.90
23160;DHT22;11748;50.844;4.396;2023-09-12T12:19:39;29.10;99.90
23160;DHT22;11748;50.844;4.396;2023-09-12T12:22:08;29.10;99.90
23160;DHT22;11748;50.844;4.396;2023-09-12T12:24:44;29.50;99.90
23160;DHT22;11748;50.844;4.396;2023-09-12T12:27:10;29.60;99.90
23160;DHT22;11748;50.844;4.396;2023-09-12T12:29:38;29.00;99.90
23160;DHT22;11748;50.844;4.396;2023-09-12T12:32:08;28.60;99.90
23160;DHT22;11748;50.844;4.396;2023-09-12T12:34:35;28.30;99.90
23160;DHT22;11748;50.844;4.396;2023-09-12T12:37:02;28.30;99.90
23160;DHT22;11748;50.844;4.396;2023-09-12T12:39:27;28.20;99.90
23160;DHT22;11748;50.844;4.396;2023-09-12T12:41:54;27.90;99.90
23160;DHT22;11748;50.844;4.396;2023-09-12T12:44:20;27.80;99.90
23160;DHT22;11748;50.844;4.396;2023-09-12T12:46:51;27.90;99.90
23160;DHT22;11748;50.844;4.396;2023-09-12T12:49:18;28.20;99.90
23160;DHT22;11748;50.844;4.396;2023-09-12T12:51:45;28.10;99.90
23160;DHT22;11748;50.844;4.396;2023-09-12T12:54:11;28.30;99.90
23160;DHT22;11748;50.844;4.396;2023-09-12T12:56:39;28.30;99.90
23160;DHT22;11748;50.844;4.396;2023-09-12T12:59:07;28.30;99.90
23160;DHT22;11748;50.844;4.396;2023-09-12T13:01:38;28.30;99.90
23160;DHT22;11748;50.844;4.396;2023-09-12T13:04:06;28.40;99.90
23160;DHT22;11748;50.844;4.396;2023-09-12T13:06:32;28.10;99.90
23160;DHT22;11748;50.844;4.396;2023-09-12T13:09:02;27.80;99.90
23160;DHT22;11748;50.844;4.396;2023-09-12T13:11:31;27.60;99.90
23160;DHT22;11748;50.844;4.396;2023-09-12T13:14:00;27.40;99.90
23160;DHT22;11748;50.844;4.396;2023-09-12T13:16:26;27.20;99.90
23160;DHT22;11748;50.844;4.396;2023-09-12T13:18:53;27.10;99.90
23160;DHT22;11748;50.844;4.396;2023-09-12T13:21:19;26.90;99.90
23160;DHT22;11748;50.844;4.396;2023-09-12T13:23:45;26.70;99.90
23160;DHT22;11748;50.844;4.396;2023-09-12T13:26:11;26.90;99.90
23160;DHT22;11748;50.844;4.396;2023-09-12T13:28:38;27.10;99.90
23160;DHT22;11748;50.844;4.396;2023-09-12T13:31:04;26.90;99.90
23160;DHT22;11748;50.844;4.396;2023-09-12T13:33:32;26.90;99.90
23160;DHT22;11748;50.844;4.396;2023-09-12T13:35:58;26.90;99.90
23160;DHT22;11748;50.844;4.396;2023-09-12T13:38:23;27.10;99.90
23160;DHT22;11748;50.844;4.396;2023-09-12T13:40:49;27.20;99.90
23160;DHT22;11748;50.844;4.396;2023-09-12T13:43:15;27.10;99.90
23160;DHT22;11748;50.844;4.396;2023-09-12T13:45:41;26.90;99.90
23160;DHT22;11748;50.844;4.396;2023-09-12T13:48:07;26.70;99.90
23160;DHT22;11748;50.844;4.396;2023-09-12T13:50:34;26.70;99.90
23160;DHT22;11748;50.844;4.396;2023-09-12T13:53:02;26.70;99.90
23160;DHT22;11748;50.844;4.396;2023-09-12T13:55:35;26.70;99.90
23160;DHT22;11748;50.844;4.396;2023-09-12T13:58:04;26.90;99.90
23160;DHT22;11748;50.844;4.396;2023-09-12T14:00:32;27.00;99.90
23160;DHT22;11748;50.844;4.396;2023-09-12T14:02:58;26.90;99.90
23160;DHT22;11748;50.844;4.396;2023-09-12T14:05:24;26.80;99.90
23160;DHT22;11748;50.844;4.396;2023-09-12T14:07:51;26.80;99.90
23160;DHT22;11748;50.844;4.396;2023-09-12T14:10:17;26.70;99.90
23160;DHT22;11748;50.844;4.396;2023-09-12T14:12:43;26.70;99.90
23160;DHT22;11748;50.844;4.396;2023-09-12T14:15:10;26.60;99.90
23160;DHT22;11748;50.844;4.396;2023-09-12T14:17:37;26.50;99.90
23160;DHT22;11748;50.844;4.396;2023-09-12T14:20:03;26.60;99.90
23160;DHT22;11748;50.844;4.396;2023-09-12T14:22:29;26.50;99.90
23160;DHT22;11748;50.844;4.396;2023-09-12T14:24:55;26.50;99.90
23160;DHT22;11748;50.844;4.396;2023-09-12T14:27:21;26.70;99.90
23160;DHT22;11748;50.844;4.396;2023-09-12T14:29:47;26.70;99.90
23160;DHT22;11748;50.844;4.396;2023-09-12T14:32:15;26.70;99.90
23160;DHT22;11748;50.844;4.396;2023-09-12T14:34:41;26.70;99.90
23160;DHT22;11748;50.844;4.396;2023-09-12T14:37:07;26.50;99.90
23160;DHT22;11748;50.844;4.396;2023-09-12T14:39:33;26.50;99.90
23160;DHT22;11748;50.844;4.396;2023-09-12T14:41:59;26.20;99.90
23160;DHT22;11748;50.844;4.396;2023-09-12T14:44:27;26.10;99.90
23160;DHT22;11748;50.844;4.396;2023-09-12T14:46:58;26.00;99.90
23160;DHT22;11748;50.844;4.396;2023-09-12T14:49:25;26.20;99.90
23160;DHT22;11748;50.844;4.396;2023-09-12T14:51:51;26.00;99.90
23160;DHT22;11748;50.844;4.396;2023-09-12T14:54:16;25.90;99.90
23160;DHT22;11748;50.844;4.396;2023-09-12T14:56:42;26.00;99.90
23160;DHT22;11748;50.844;4.396;2023-09-12T14:59:08;25.90;99.90
23160;DHT22;11748;50.844;4.396;2023-09-12T15:01:34;25.90;99.90
23160;DHT22;11748;50.844;4.396;2023-09-12T15:04:00;25.90;99.90
23160;DHT22;11748;50.844;4.396;2023-09-12T15:06:27;25.80;99.90
23160;DHT22;11748;50.844;4.396;2023-09-12T15:08:53;25.80;99.90
23160;DHT22;11748;50.844;4.396;2023-09-12T15:11:19;25.60;99.90
23160;DHT22;11748;50.844;4.396;2023-09-12T15:13:44;25.50;99.90
23160;DHT22;11748;50.844;4.396;2023-09-12T15:16:11;25.40;99.90
23160;DHT22;11748;50.844;4.396;2023-09-12T15:18:37;25.40;99.90
23160;DHT22;11748;50.844;4.396;2023-09-12T15:21:05;25.20;99.90
23160;DHT22;11748;50.844;4.396;2023-09-12T15:23:31;25.30;99.90
23160;DHT22;11748;50.844;4.396;2023-09-12T15:25:57;25.30;99.90
23160;DHT22;11748;50.844;4.396;2023-09-12T15:28:23;25.20;99.90
23160;DHT22;11748;50.844;4.396;2023-09-12T15:30:49;25.30;99.90
23160;DHT22;11748;50.844;4.396;2023-09-12T15:33:14;25.30;99.90
23160;DHT22;11748;50.844;4.396;2023-09-12T15:35:40;25.30;99.90
23160;DHT22;11748;50.844;4.396;2023-09-12T15:38:06;25.10;99.90
23160;DHT22;11748;50.844;4.396;2023-09-12T15:40:32;25.00;99.90
23160;DHT22;11748;50.844;4.396;2023-09-12T15:42:58;24.80;99.90
23160;DHT22;11748;50.844;4.396;2023-09-12T15:45:24;24.70;99.90
23160;DHT22;11748;50.844;4.396;2023-09-12T15:47:50;24.80;99.90